sensor_id;sensor_type;location;lat;lon;timestamp;temperature;humidity
24638;DHT22;12773;50.162;8.548;2023-03-01T00:00:26;2.70;99.90
24638;DHT22;12773;50.162;8.548;2023-03-01T00:03:13;2.70;99.90
24638;DHT22;12773;50.162;8.548;2023-03-01T00:06:01;2.70;99.90
24638;DHT22;12773;50.162;8.548;2023-03-01T00:08:49;2.70;99.90
24638;DHT22;12773;50.162;8.548;2023-03-01T00:11:36;2.80;99.90
24638;DHT22;12773;50.162;8.548;2023-03-01T00:14:24;2.70;99.90
24638;DHT22;12773;50.162;8.548;2023-03-01T00:17:11;2.80;99.90
24638;DHT22;12773;50.162;8.548;2023-03-01T00:19:59;2.70;99.90
24638;DHT22;12773;50.162;8.548;2023-03-01T00:22:46;2.70;99.90
24638;DHT22;12773;50.162;8.548;2023-03-01T00:25:34;2.70;99.90
24638;DHT22;12773;50.162;8.548;2023-03-01T00:28:22;2.70;99.90
24638;DHT22;12773;50.162;8.548;2023-03-01T00:31:12;2.70;99.90
24638;DHT22;12773;50.162;8.548;2023-03-01T00:34:03;2.80;99.90
24638;DHT22;12773;50.162;8.548;2023-03-01T00:36:50;2.80;99.90
24638;DHT22;12773;50.162;8.548;2023-03-01T00:39:37;2.80;99.90
24638;DHT22;12773;50.162;8.548;2023-03-01T00:42:24;2.80;99.90
24638;DHT22;12773;50.162;8.548;2023-03-01T00:45:11;2.70;99.90
24638;DHT22;12773;50.162;8.548;2023-03-01T00:47:59;2.70;99.90
24638;DHT22;12773;50.162;8.548;2023-03-01T00:50:46;2.70;99.90
24638;DHT22;12773;50.162;8.548;2023-03-01T00:53:34;2.60;99.90
24638;DHT22;12773;50.162;8.548;2023-03-01T00:56:21;2.60;99.90
24638;DHT22;12773;50.162;8.548;2023-03-01T00:59:09;2.70;99.90
24638;DHT22;12773;50.162;8.548;2023-03-01T01:01:56;2.70;99.90
24638;DHT22;12773;50.162;8.548;2023-03-01T01:04:43;2.70;99.90
24638;DHT22;12773;50.162;8.548;2023-03-01T01:07:30;2.70;99.90
24638;DHT22;12773;50.162;8.548;2023-03-01T01:10:17;2.70;99.90
24638;DHT22;12773;50.162;8.548;2023-03-01T01:13:05;2.70;99.90
24638;DHT22;12773;50.162;8.548;2023-03-01T01:15:52;2.80;99.90
24638;DHT22;12773;50.162;8.548;2023-03-01T01:18:39;2.80;99.90
24638;DHT22;12773;50.162;8.548;2023-03-01T01:21:27;2.80;99.90
24638;DHT22;12773;50.162;8.548;2023-03-01T01:24:15;2.70;99.90
24638;DHT22;12773;50.162;8.548;2023-03-01T01:27:03;2.70;99.90
24638;DHT22;12773;50.162;8.548;2023-03-01T01:29:52;2.70;99.90
24638;DHT22;12773;50.162;8.548;2023-03-01T01:32:39;2.80;99.90
24638;DHT22;12773;50.162;8.548;2023-03-01T01:35:27;2.80;99.90
24638;DHT22;12773;50.162;8.548;2023-03-01T01:38:14;2.70;99.90
24638;DHT22;12773;50.162;8.548;2023-03-01T01:41:02;2.70;99.90
24638;DHT22;12773;50.162;8.548;2023-03-01T01:47:13;2.70;99.90
24638;DHT22;12773;50.162;8.548;2023-03-01T01:50:02;2.70;99.90
24638;DHT22;12773;50.162;8.548;2023-03-01T01:52:51;2.70;99.90
24638;DHT22;12773;50.162;8.548;2023-03-01T01:55:43;2.70;99.90
24638;DHT22;12773;50.162;8.548;2023-03-01T01:58:31;2.70;99.90
24638;DHT22;12773;50.162;8.548;2023-03-01T02:01:18;2.80;99.90
24638;DHT22;12773;50.162;8.548;2023-03-01T02:04:06;2.80;99.90
24638;DHT22;12773;50.162;8.548;2023-03-01T02:06:59;2.70;99.90
24638;DHT22;12773;50.162;8.548;2023-03-01T02:09:49;2.70;99.90
24638;DHT22;12773;50.162;8.548;2023-03-01T02:12:37;2.70;99.90
24638;DHT22;12773;50.162;8.548;2023-03-01T02:15:26;2.80;99.90
24638;DHT22;12773;50.162;8.548;2023-03-01T02:18:16;2.70;99.90
24638;DHT22;12773;50.162;8.548;2023-03-01T02:24:37;2.70;99.90
24638;DHT22;12773;50.162;8.548;2023-03-01T02:27:23;2.80;99.90
24638;DHT22;12773;50.162;8.548;2023-03-01T02:30:12;2.80;99.90
24638;DHT22;12773;50.162;8.548;2023-03-01T02:33:00;2.70;99.90
24638;DHT22;12773;50.162;8.548;2023-03-01T02:35:50;2.90;99.90
24638;DHT22;12773;50.162;8.548;2023-03-01T02:38:40;2.80;99.90
24638;DHT22;12773;50.162;8.548;2023-03-01T02:41:31;2.80;99.90
24638;DHT22;12773;50.162;8.548;2023-03-01T02:44:19;2.80;99.90
24638;DHT22;12773;50.162;8.548;2023-03-01T02:47:06;2.70;99.90
24638;DHT22;12773;50.162;8.548;2023-03-01T02:49:53;2.70;99.90
24638;DHT22;12773;50.162;8.548;2023-03-01T02:52:54;2.70;99.90
24638;DHT22;12773;50.162;8.548;2023-03-01T02:55:36;2.70;99.90
24638;DHT22;12773;50.162;8.548;2023-03-01T02:58:24;2.70;99.90
24638;DHT22;12773;50.162;8.548;2023-03-01T03:01:14;2.70;99.90
24638;DHT22;12773;50.162;8.548;2023-03-01T03:04:05;2.70;99.90
24638;DHT22;12773;50.162;8.548;2023-03-01T03:06:53;2.70;99.90
24638;DHT22;12773;50.162;8.548;2023-03-01T03:09:40;2.70;99.90
24638;DHT22;12773;50.162;8.548;2023-03-01T03:12:27;2.70;99.90
24638;DHT22;12773;50.162;8.548;2023-03-01T03:15:14;2.60;99.90
24638;DHT22;12773;50.162;8.548;2023-03-01T03:18:03;2.60;99.90
24638;DHT22;12773;50.162;8.548;2023-03-01T03:20:51;2.60;99.90
24638;DHT22;12773;50.162;8.548;2023-03-01T03:23:39;2.50;99.90
24638;DHT22;12773;50.162;8.548;2023-03-01T03:26:26;2.40;99.90
24638;DHT22;12773;50.162;8.548;2023-03-01T03:29:14;2.50;99.90
24638;DHT22;12773;50.162;8.548;2023-03-01T03:32:02;2.50;99.90
24638;DHT22;12773;50.162;8.548;2023-03-01T03:34:49;2.60;99.90
24638;DHT22;12773;50.162;8.548;2023-03-01T03:37:39;2.60;99.90
24638;DHT22;12773;50.162;8.548;2023-03-01T03:40:49;2.50;99.90
24638;DHT22;12773;50.162;8.548;2023-03-01T03:43:39;2.50;99.90
24638;DHT22;12773;50.162;8.548;2023-03-01T03:46:26;2.50;99.90
24638;DHT22;12773;50.162;8.548;2023-03-01T03:49:13;2.50;99.90
24638;DHT22;12773;50.162;8.548;2023-03-01T03:52:00;2.40;99.90
24638;DHT22;12773;50.162;8.548;2023-03-01T03:54:47;2.40;99.90
24638;DHT22;12773;50.162;8.548;2023-03-01T03:57:36;2.30;99.90
24638;DHT22;12773;50.162;8.548;2023-03-01T04:00:23;2.40;99.90
24638;DHT22;12773;50.162;8.548;2023-03-01T04:03:12;2.20;99.90
24638;DHT22;12773;50.162;8.548;2023-03-01T04:06:01;2.20;99.90
24638;DHT22;12773;50.162;8.548;2023-03-01T04:08:48;2.20;99.90
24638;DHT22;12773;50.162;8.548;2023-03-01T04:11:37;2.20;99.90
24638;DHT22;12773;50.162;8.548;2023-03-01T04:14:24;2.20;99.90
24638;DHT22;12773;50.162;8.548;2023-03-01T04:17:11;2.10;99.90
24638;DHT22;12773;50.162;8.548;2023-03-01T04:19:59;2.10;99.90
24638;DHT22;12773;50.162;8.548;2023-03-01T04:22:46;2.00;99.90
24638;DHT22;12773;50.162;8.548;2023-03-01T04:25:33;2.00;99.90
24638;DHT22;12773;50.162;8.548;2023-03-01T04:28:29;2.00;99.90
24638;DHT22;12773;50.162;8.548;2023-03-01T04:31:18;2.00;99.90
24638;DHT22;12773;50.162;8.548;2023-03-01T04:34:07;2.00;99.90
24638;DHT22;12773;50.162;8.548;2023-03-01T04:36:55;2.00;99.90
24638;DHT22;12773;50.162;8.548;2023-03-01T04:39:42;2.10;99.90
24638;DHT22;12773;50.162;8.548;2023-03-01T04:42:33;2.10;99.90
24638;DHT22;12773;50.162;8.548;2023-03-01T04:45:20;2.10;99.90
24638;DHT22;12773;50.162;8.548;2023-03-01T04:48:07;2.00;99.90
24638;DHT22;12773;50.162;8.548;2023-03-01T04:50:55;2.00;99.90
24638;DHT22;12773;50.162;8.548;2023-03-01T04:53:42;2.00;99.90
24638;DHT22;12773;50.162;8.548;2023-03-01T04:56:29;2.00;99.90
24638;DHT22;12773;50.162;8.548;2023-03-01T04:59:16;2.00;99.90
24638;DHT22;12773;50.162;8.548;2023-03-01T05:02:04;2.00;99.90
24638;DHT22;12773;50.162;8.548;2023-03-01T05:04:51;2.00;99.90
24638;DHT22;12773;50.162;8.548;2023-03-01T05:07:40;2.00;99.90
24638;DHT22;12773;50.162;8.548;2023-03-01T05:10:31;1.90;99.90
24638;DHT22;12773;50.162;8.548;2023-03-01T05:13:19;1.90;99.90
24638;DHT22;12773;50.162;8.548;2023-03-01T05:16:08;1.90;99.90
24638;DHT22;12773;50.162;8.548;2023-03-01T05:18:59;2.00;99.90
24638;DHT22;12773;50.162;8.548;2023-03-01T05:21:47;2.00;99.90
24638;DHT22;12773;50.162;8.548;2023-03-01T05:24:52;2.00;99.90
24638;DHT22;12773;50.162;8.548;2023-03-01T05:27:40;2.10;99.90
24638;DHT22;12773;50.162;8.548;2023-03-01T05:30:27;2.20;99.90
24638;DHT22;12773;50.162;8.548;2023-03-01T05:33:14;2.20;99.90
24638;DHT22;12773;50.162;8.548;2023-03-01T05:36:01;2.10;99.90
24638;DHT22;12773;50.162;8.548;2023-03-01T05:38:49;2.20;99.90
24638;DHT22;12773;50.162;8.548;2023-03-01T05:41:36;2.20;99.90
24638;DHT22;12773;50.162;8.548;2023-03-01T05:44:24;2.20;99.90
24638;DHT22;12773;50.162;8.548;2023-03-01T05:47:11;2.20;99.90
24638;DHT22;12773;50.162;8.548;2023-03-01T05:49:59;2.30;99.90
24638;DHT22;12773;50.162;8.548;2023-03-01T05:52:47;2.30;99.90
24638;DHT22;12773;50.162;8.548;2023-03-01T05:55:35;2.30;99.90
24638;DHT22;12773;50.162;8.548;2023-03-01T05:58:23;2.20;99.90
24638;DHT22;12773;50.162;8.548;2023-03-01T06:01:13;2.20;99.90
24638;DHT22;12773;50.162;8.548;2023-03-01T06:04:00;2.20;99.90
24638;DHT22;12773;50.162;8.548;2023-03-01T06:06:47;2.10;99.90
24638;DHT22;12773;50.162;8.548;2023-03-01T06:09:35;2.20;99.90
24638;DHT22;12773;50.162;8.548;2023-03-01T06:12:22;2.20;99.90
24638;DHT22;12773;50.162;8.548;2023-03-01T06:15:11;2.10;99.90
24638;DHT22;12773;50.162;8.548;2023-03-01T06:17:58;2.10;99.90
24638;DHT22;12773;50.162;8.548;2023-03-01T06:20:54;2.00;99.90
24638;DHT22;12773;50.162;8.548;2023-03-01T06:23:41;2.10;99.90
24638;DHT22;12773;50.162;8.548;2023-03-01T06:26:29;2.00;99.90
24638;DHT22;12773;50.162;8.548;2023-03-01T06:29:16;2.10;99.90
24638;DHT22;12773;50.162;8.548;2023-03-01T06:32:04;2.00;99.90
24638;DHT22;12773;50.162;8.548;2023-03-01T06:34:51;2.00;99.90
24638;DHT22;12773;50.162;8.548;2023-03-01T06:37:38;2.00;99.90
24638;DHT22;12773;50.162;8.548;2023-03-01T06:40:26;2.00;99.90
24638;DHT22;12773;50.162;8.548;2023-03-01T06:43:13;2.00;99.90
24638;DHT22;12773;50.162;8.548;2023-03-01T06:46:05;2.10;99.90
24638;DHT22;12773;50.162;8.548;2023-03-01T06:48:54;2.10;99.90
24638;DHT22;12773;50.162;8.548;2023-03-01T06:51:41;2.20;99.90
24638;DHT22;12773;50.162;8.548;2023-03-01T06:54:28;2.10;99.90
24638;DHT22;12773;50.162;8.548;2023-03-01T06:57:16;2.20;99.90
24638;DHT22;12773;50.162;8.548;2023-03-01T07:00:04;2.20;99.90
24638;DHT22;12773;50.162;8.548;2023-03-01T07:02:53;2.30;99.90
24638;DHT22;12773;50.162;8.548;2023-03-01T07:05:40;2.40;99.90
24638;DHT22;12773;50.162;8.548;2023-03-01T07:08:28;2.40;99.90
24638;DHT22;12773;50.162;8.548;2023-03-01T07:11:16;2.40;99.90
24638;DHT22;12773;50.162;8.548;2023-03-01T07:14:03;2.60;99.90
24638;DHT22;12773;50.162;8.548;2023-03-01T07:16:52;2.60;99.90
24638;DHT22;12773;50.162;8.548;2023-03-01T07:19:39;2.90;99.90
24638;DHT22;12773;50.162;8.548;2023-03-01T07:22:27;2.90;99.90
24638;DHT22;12773;50.162;8.548;2023-03-01T07:25:14;3.10;99.90
24638;DHT22;12773;50.162;8.548;2023-03-01T07:28:01;3.10;99.90
24638;DHT22;12773;50.162;8.548;2023-03-01T07:30:48;3.30;99.90
24638;DHT22;12773;50.162;8.548;2023-03-01T07:33:36;3.40;99.90
24638;DHT22;12773;50.162;8.548;2023-03-01T07:36:23;3.30;99.90
24638;DHT22;12773;50.162;8.548;2023-03-01T07:39:11;3.40;99.90
24638;DHT22;12773;50.162;8.548;2023-03-01T07:41:59;3.50;99.90
24638;DHT22;12773;50.162;8.548;2023-03-01T07:44:46;3.40;99.90
24638;DHT22;12773;50.162;8.548;2023-03-01T07:47:35;3.50;99.90
24638;DHT22;12773;50.162;8.548;2023-03-01T07:50:23;3.40;99.90
24638;DHT22;12773;50.162;8.548;2023-03-01T07:53:10;3.40;99.90
24638;DHT22;12773;50.162;8.548;2023-03-01T07:56:02;3.50;99.90
24638;DHT22;12773;50.162;8.548;2023-03-01T07:58:50;3.50;99.90
24638;DHT22;12773;50.162;8.548;2023-03-01T08:01:37;3.50;99.90
24638;DHT22;12773;50.162;8.548;2023-03-01T08:04:24;3.50;99.90
24638;DHT22;12773;50.162;8.548;2023-03-01T08:07:12;3.50;99.90
24638;DHT22;12773;50.162;8.548;2023-03-01T08:10:00;3.60;99.90
24638;DHT22;12773;50.162;8.548;2023-03-01T08:12:47;3.70;99.90
24638;DHT22;12773;50.162;8.548;2023-03-01T08:15:34;3.60;99.90
24638;DHT22;12773;50.162;8.548;2023-03-01T08:18:21;3.70;99.90
24638;DHT22;12773;50.162;8.548;2023-03-01T08:21:14;3.60;99.90
24638;DHT22;12773;50.162;8.548;2023-03-01T08:24:06;3.70;99.90
24638;DHT22;12773;50.162;8.548;2023-03-01T08:26:54;3.70;99.90
24638;DHT22;12773;50.162;8.548;2023-03-01T08:29:41;3.80;99.90
24638;DHT22;12773;50.162;8.548;2023-03-01T08:32:28;4.00;99.90
24638;DHT22;12773;50.162;8.548;2023-03-01T08:35:16;4.10;99.90
24638;DHT22;12773;50.162;8.548;2023-03-01T08:38:03;4.00;99.90
24638;DHT22;12773;50.162;8.548;2023-03-01T08:40:51;4.00;99.90
24638;DHT22;12773;50.162;8.548;2023-03-01T08:43:38;4.00;99.90
24638;DHT22;12773;50.162;8.548;2023-03-01T08:46:27;4.20;99.90
24638;DHT22;12773;50.162;8.548;2023-03-01T08:49:16;4.20;99.90
24638;DHT22;12773;50.162;8.548;2023-03-01T08:52:04;4.50;99.90
24638;DHT22;12773;50.162;8.548;2023-03-01T08:54:51;4.60;99.90
24638;DHT22;12773;50.162;8.548;2023-03-01T08:57:38;4.60;99.90
24638;DHT22;12773;50.162;8.548;2023-03-01T09:00:26;4.60;99.90
24638;DHT22;12773;50.162;8.548;2023-03-01T09:03:13;4.60;99.90
24638;DHT22;12773;50.162;8.548;2023-03-01T09:06:01;4.80;99.90
24638;DHT22;12773;50.162;8.548;2023-03-01T09:08:50;4.80;99.90
24638;DHT22;12773;50.162;8.548;2023-03-01T09:11:37;4.80;99.90
24638;DHT22;12773;50.162;8.548;2023-03-01T09:14:25;5.20;99.90
24638;DHT22;12773;50.162;8.548;2023-03-01T09:17:12;5.20;99.90
24638;DHT22;12773;50.162;8.548;2023-03-01T09:19:59;5.10;99.90
24638;DHT22;12773;50.162;8.548;2023-03-01T09:22:47;5.30;99.90
24638;DHT22;12773;50.162;8.548;2023-03-01T09:25:35;5.10;99.90
24638;DHT22;12773;50.162;8.548;2023-03-01T09:28:23;5.20;99.90
24638;DHT22;12773;50.162;8.548;2023-03-01T09:31:12;5.30;99.90
24638;DHT22;12773;50.162;8.548;2023-03-01T09:34:00;5.40;99.90
24638;DHT22;12773;50.162;8.548;2023-03-01T09:36:47;5.50;99.90
24638;DHT22;12773;50.162;8.548;2023-03-01T09:39:34;5.70;99.90
24638;DHT22;12773;50.162;8.548;2023-03-01T09:42:22;6.00;99.90
24638;DHT22;12773;50.162;8.548;2023-03-01T09:45:21;6.00;99.90
24638;DHT22;12773;50.162;8.548;2023-03-01T09:48:11;6.10;99.90
24638;DHT22;12773;50.162;8.548;2023-03-01T09:50:57;6.20;99.90
24638;DHT22;12773;50.162;8.548;2023-03-01T09:53:45;6.50;99.90
24638;DHT22;12773;50.162;8.548;2023-03-01T09:56:40;7.00;99.90
24638;DHT22;12773;50.162;8.548;2023-03-01T10:02:56;7.40;98.80
24638;DHT22;12773;50.162;8.548;2023-03-01T10:05:59;7.00;98.80
24638;DHT22;12773;50.162;8.548;2023-03-01T10:09:37;7.20;98.80
24638;DHT22;12773;50.162;8.548;2023-03-01T10:11:48;7.70;98.10
24638;DHT22;12773;50.162;8.548;2023-03-01T10:14:34;7.30;97.30
24638;DHT22;12773;50.162;8.548;2023-03-01T10:20:21;7.20;98.00
24638;DHT22;12773;50.162;8.548;2023-03-01T10:23:08;7.10;98.20
24638;DHT22;12773;50.162;8.548;2023-03-01T10:26:12;7.00;97.60
24638;DHT22;12773;50.162;8.548;2023-03-01T10:29:03;6.90;98.20
24638;DHT22;12773;50.162;8.548;2023-03-01T10:31:52;6.80;98.00
24638;DHT22;12773;50.162;8.548;2023-03-01T10:34:40;6.90;98.30
24638;DHT22;12773;50.162;8.548;2023-03-01T10:37:27;7.00;97.50
24638;DHT22;12773;50.162;8.548;2023-03-01T10:40:15;7.30;98.40
24638;DHT22;12773;50.162;8.548;2023-03-01T10:43:05;7.70;96.80
24638;DHT22;12773;50.162;8.548;2023-03-01T10:45:53;7.80;96.50
24638;DHT22;12773;50.162;8.548;2023-03-01T10:48:40;7.80;96.60
24638;DHT22;12773;50.162;8.548;2023-03-01T10:51:27;8.00;96.00
24638;DHT22;12773;50.162;8.548;2023-03-01T10:54:30;8.00;96.00
24638;DHT22;12773;50.162;8.548;2023-03-01T10:57:32;8.30;96.10
24638;DHT22;12773;50.162;8.548;2023-03-01T11:00:25;8.30;94.70
24638;DHT22;12773;50.162;8.548;2023-03-01T11:03:16;7.90;94.90
24638;DHT22;12773;50.162;8.548;2023-03-01T11:12:12;8.10;94.50
24638;DHT22;12773;50.162;8.548;2023-03-01T11:14:55;8.10;94.90
24638;DHT22;12773;50.162;8.548;2023-03-01T11:17:44;8.40;94.60
24638;DHT22;12773;50.162;8.548;2023-03-01T11:20:37;8.60;94.10
24638;DHT22;12773;50.162;8.548;2023-03-01T11:23:25;8.60;93.00
24638;DHT22;12773;50.162;8.548;2023-03-01T11:26:15;8.50;93.00
24638;DHT22;12773;50.162;8.548;2023-03-01T11:29:07;8.70;92.80
24638;DHT22;12773;50.162;8.548;2023-03-01T11:31:56;8.60;92.50
24638;DHT22;12773;50.162;8.548;2023-03-01T11:34:51;8.80;93.50
24638;DHT22;12773;50.162;8.548;2023-03-01T11:41:18;9.10;91.50
24638;DHT22;12773;50.162;8.548;2023-03-01T11:44:28;9.20;91.30
24638;DHT22;12773;50.162;8.548;2023-03-01T11:47:21;9.20;91.30
24638;DHT22;12773;50.162;8.548;2023-03-01T11:56:39;9.10;90.60
24638;DHT22;12773;50.162;8.548;2023-03-01T12:02:51;9.10;89.90
24638;DHT22;12773;50.162;8.548;2023-03-01T12:06:04;9.20;90.30
24638;DHT22;12773;50.162;8.548;2023-03-01T12:18:30;10.40;84.70
24638;DHT22;12773;50.162;8.548;2023-03-01T12:24:39;10.00;83.40
24638;DHT22;12773;50.162;8.548;2023-03-01T12:27:30;9.80;83.60
24638;DHT22;12773;50.162;8.548;2023-03-01T12:30:37;9.70;84.40
24638;DHT22;12773;50.162;8.548;2023-03-01T12:36:39;10.00;84.20
24638;DHT22;12773;50.162;8.548;2023-03-01T12:39:41;10.10;83.20
24638;DHT22;12773;50.162;8.548;2023-03-01T12:51:59;10.10;80.20
24638;DHT22;12773;50.162;8.548;2023-03-01T12:54:48;10.20;79.80
24638;DHT22;12773;50.162;8.548;2023-03-01T12:57:49;9.90;80.00
24638;DHT22;12773;50.162;8.548;2023-03-01T13:03:39;9.80;80.90
24638;DHT22;12773;50.162;8.548;2023-03-01T13:10:11;10.40;80.30
24638;DHT22;12773;50.162;8.548;2023-03-01T13:13:02;10.20;79.20
24638;DHT22;12773;50.162;8.548;2023-03-01T13:15:51;9.90;77.30
24638;DHT22;12773;50.162;8.548;2023-03-01T13:18:38;10.10;76.80
24638;DHT22;12773;50.162;8.548;2023-03-01T13:21:29;9.90;77.40
24638;DHT22;12773;50.162;8.548;2023-03-01T13:27:21;10.20;78.10
24638;DHT22;12773;50.162;8.548;2023-03-01T13:39:32;9.70;77.60
24638;DHT22;12773;50.162;8.548;2023-03-01T13:42:38;9.60;78.20
24638;DHT22;12773;50.162;8.548;2023-03-01T13:45:39;9.70;78.80
24638;DHT22;12773;50.162;8.548;2023-03-01T13:48:29;9.80;79.40
24638;DHT22;12773;50.162;8.548;2023-03-01T13:51:27;9.80;78.20
24638;DHT22;12773;50.162;8.548;2023-03-01T13:54:12;9.90;79.00
24638;DHT22;12773;50.162;8.548;2023-03-01T13:57:01;9.80;79.40
24638;DHT22;12773;50.162;8.548;2023-03-01T13:59:49;9.60;79.30
24638;DHT22;12773;50.162;8.548;2023-03-01T14:02:36;9.60;78.20
24638;DHT22;12773;50.162;8.548;2023-03-01T14:05:23;9.90;79.90
24638;DHT22;12773;50.162;8.548;2023-03-01T14:08:22;9.90;78.90
24638;DHT22;12773;50.162;8.548;2023-03-01T14:14:48;9.80;78.90
24638;DHT22;12773;50.162;8.548;2023-03-01T14:20:27;9.90;79.10
24638;DHT22;12773;50.162;8.548;2023-03-01T14:23:19;9.80;78.80
24638;DHT22;12773;50.162;8.548;2023-03-01T14:26:07;9.90;79.50
24638;DHT22;12773;50.162;8.548;2023-03-01T14:28:55;10.00;79.20
24638;DHT22;12773;50.162;8.548;2023-03-01T14:31:43;9.90;78.40
24638;DHT22;12773;50.162;8.548;2023-03-01T14:34:32;9.80;78.70
24638;DHT22;12773;50.162;8.548;2023-03-01T14:37:34;9.80;79.30
24638;DHT22;12773;50.162;8.548;2023-03-01T14:40:24;9.50;78.50
24638;DHT22;12773;50.162;8.548;2023-03-01T14:43:21;9.70;77.90
24638;DHT22;12773;50.162;8.548;2023-03-01T14:46:00;9.90;77.60
24638;DHT22;12773;50.162;8.548;2023-03-01T14:48:53;9.80;78.00
24638;DHT22;12773;50.162;8.548;2023-03-01T14:51:49;9.80;77.70
24638;DHT22;12773;50.162;8.548;2023-03-01T14:54:42;9.90;77.30
24638;DHT22;12773;50.162;8.548;2023-03-01T14:57:29;10.00;78.20
24638;DHT22;12773;50.162;8.548;2023-03-01T15:00:23;9.90;77.90
24638;DHT22;12773;50.162;8.548;2023-03-01T15:03:23;9.90;77.60
24638;DHT22;12773;50.162;8.548;2023-03-01T15:06:06;10.00;78.60
24638;DHT22;12773;50.162;8.548;2023-03-01T15:08:54;10.10;76.20
24638;DHT22;12773;50.162;8.548;2023-03-01T15:11:42;10.10;76.90
24638;DHT22;12773;50.162;8.548;2023-03-01T15:14:41;10.00;75.40
24638;DHT22;12773;50.162;8.548;2023-03-01T15:17:35;10.00;75.50
24638;DHT22;12773;50.162;8.548;2023-03-01T15:20:25;10.20;76.60
24638;DHT22;12773;50.162;8.548;2023-03-01T15:23:24;10.10;75.90
24638;DHT22;12773;50.162;8.548;2023-03-01T15:26:22;9.90;77.00
24638;DHT22;12773;50.162;8.548;2023-03-01T15:29:18;9.90;76.70
24638;DHT22;12773;50.162;8.548;2023-03-01T15:35:37;9.70;77.30
24638;DHT22;12773;50.162;8.548;2023-03-01T15:38:35;9.80;76.70
24638;DHT22;12773;50.162;8.548;2023-03-01T15:41:30;9.70;77.00
24638;DHT22;12773;50.162;8.548;2023-03-01T15:44:28;9.60;77.00
24638;DHT22;12773;50.162;8.548;2023-03-01T15:47:29;9.50;78.40
24638;DHT22;12773;50.162;8.548;2023-03-01T15:50:25;9.40;79.10
24638;DHT22;12773;50.162;8.548;2023-03-01T15:53:13;9.40;79.50
24638;DHT22;12773;50.162;8.548;2023-03-01T15:56:02;9.30;80.00
24638;DHT22;12773;50.162;8.548;2023-03-01T15:58:49;9.20;80.20
24638;DHT22;12773;50.162;8.548;2023-03-01T16:01:36;9.10;80.30
24638;DHT22;12773;50.162;8.548;2023-03-01T16:04:24;9.20;80.70
24638;DHT22;12773;50.162;8.548;2023-03-01T16:07:11;9.10;80.00
24638;DHT22;12773;50.162;8.548;2023-03-01T16:09:58;8.90;80.10
24638;DHT22;12773;50.162;8.548;2023-03-01T16:12:47;9.00;80.10
24638;DHT22;12773;50.162;8.548;2023-03-01T16:15:34;8.80;79.50
24638;DHT22;12773;50.162;8.548;2023-03-01T16:18:21;9.00;79.80
24638;DHT22;12773;50.162;8.548;2023-03-01T16:21:14;8.90;80.20
24638;DHT22;12773;50.162;8.548;2023-03-01T16:24:01;8.90;80.80
24638;DHT22;12773;50.162;8.548;2023-03-01T16:26:48;9.00;81.00
24638;DHT22;12773;50.162;8.548;2023-03-01T16:29:36;8.80;80.00
24638;DHT22;12773;50.162;8.548;2023-03-01T16:32:23;8.80;79.00
24638;DHT22;12773;50.162;8.548;2023-03-01T16:35:12;8.70;79.30
24638;DHT22;12773;50.162;8.548;2023-03-01T16:38:00;8.50;79.40
24638;DHT22;12773;50.162;8.548;2023-03-01T16:40:49;8.30;80.20
24638;DHT22;12773;50.162;8.548;2023-03-01T16:43:37;8.30;79.70
24638;DHT22;12773;50.162;8.548;2023-03-01T16:46:26;8.30;79.70
24638;DHT22;12773;50.162;8.548;2023-03-01T16:49:13;8.20;79.40
24638;DHT22;12773;50.162;8.548;2023-03-01T16:52:01;8.10;79.60
24638;DHT22;12773;50.162;8.548;2023-03-01T16:54:48;8.00;80.20
24638;DHT22;12773;50.162;8.548;2023-03-01T16:57:40;7.90;80.50
24638;DHT22;12773;50.162;8.548;2023-03-01T17:00:24;7.80;80.10
24638;DHT22;12773;50.162;8.548;2023-03-01T17:03:11;7.70;79.40
24638;DHT22;12773;50.162;8.548;2023-03-01T17:06:13;7.60;80.20
24638;DHT22;12773;50.162;8.548;2023-03-01T17:08:57;7.50;80.50
24638;DHT22;12773;50.162;8.548;2023-03-01T17:11:45;7.40;80.70
24638;DHT22;12773;50.162;8.548;2023-03-01T17:14:32;7.30;80.90
24638;DHT22;12773;50.162;8.548;2023-03-01T17:17:20;7.30;80.60
24638;DHT22;12773;50.162;8.548;2023-03-01T17:20:08;7.30;81.00
24638;DHT22;12773;50.162;8.548;2023-03-01T17:22:56;7.20;80.60
24638;DHT22;12773;50.162;8.548;2023-03-01T17:25:44;7.10;81.20
24638;DHT22;12773;50.162;8.548;2023-03-01T17:28:33;7.10;81.20
24638;DHT22;12773;50.162;8.548;2023-03-01T17:31:20;7.10;81.50
24638;DHT22;12773;50.162;8.548;2023-03-01T17:34:07;7.00;81.60
24638;DHT22;12773;50.162;8.548;2023-03-01T17:36:55;6.90;81.70
24638;DHT22;12773;50.162;8.548;2023-03-01T17:39:42;6.90;81.70
24638;DHT22;12773;50.162;8.548;2023-03-01T17:42:30;6.80;82.20
24638;DHT22;12773;50.162;8.548;2023-03-01T17:45:17;6.80;82.50
24638;DHT22;12773;50.162;8.548;2023-03-01T17:48:05;6.80;82.70
24638;DHT22;12773;50.162;8.548;2023-03-01T17:50:53;6.70;83.30
24638;DHT22;12773;50.162;8.548;2023-03-01T17:53:41;6.80;83.40
24638;DHT22;12773;50.162;8.548;2023-03-01T17:56:28;6.70;83.70
24638;DHT22;12773;50.162;8.548;2023-03-01T17:59:16;6.70;84.10
24638;DHT22;12773;50.162;8.548;2023-03-01T18:02:04;6.70;84.20
24638;DHT22;12773;50.162;8.548;2023-03-01T18:04:51;6.60;84.50
24638;DHT22;12773;50.162;8.548;2023-03-01T18:07:39;6.60;84.60
24638;DHT22;12773;50.162;8.548;2023-03-01T18:10:26;6.50;85.40
24638;DHT22;12773;50.162;8.548;2023-03-01T18:13:13;6.50;85.30
24638;DHT22;12773;50.162;8.548;2023-03-01T18:16:11;6.50;85.20
24638;DHT22;12773;50.162;8.548;2023-03-01T18:18:55;6.40;85.50
24638;DHT22;12773;50.162;8.548;2023-03-01T18:21:42;6.30;85.90
24638;DHT22;12773;50.162;8.548;2023-03-01T18:24:29;6.30;86.20
24638;DHT22;12773;50.162;8.548;2023-03-01T18:27:17;6.20;86.10
24638;DHT22;12773;50.162;8.548;2023-03-01T18:30:05;6.20;86.50
24638;DHT22;12773;50.162;8.548;2023-03-01T18:32:53;6.10;86.20
24638;DHT22;12773;50.162;8.548;2023-03-01T18:35:41;6.10;86.70
24638;DHT22;12773;50.162;8.548;2023-03-01T18:38:28;6.10;86.40
24638;DHT22;12773;50.162;8.548;2023-03-01T18:41:16;6.10;86.30
24638;DHT22;12773;50.162;8.548;2023-03-01T18:44:04;6.10;86.40
24638;DHT22;12773;50.162;8.548;2023-03-01T18:46:51;6.00;86.20
24638;DHT22;12773;50.162;8.548;2023-03-01T18:49:40;6.00;86.10
24638;DHT22;12773;50.162;8.548;2023-03-01T18:52:28;6.00;86.40
24638;DHT22;12773;50.162;8.548;2023-03-01T18:55:15;5.90;86.80
24638;DHT22;12773;50.162;8.548;2023-03-01T18:58:03;5.90;86.80
24638;DHT22;12773;50.162;8.548;2023-03-01T19:00:50;5.80;87.10
24638;DHT22;12773;50.162;8.548;2023-03-01T19:03:37;5.80;87.20
24638;DHT22;12773;50.162;8.548;2023-03-01T19:06:28;5.70;88.10
24638;DHT22;12773;50.162;8.548;2023-03-01T19:09:16;5.80;88.50
24638;DHT22;12773;50.162;8.548;2023-03-01T19:12:04;5.70;89.10
24638;DHT22;12773;50.162;8.548;2023-03-01T19:14:51;5.60;89.40
24638;DHT22;12773;50.162;8.548;2023-03-01T19:17:45;5.70;89.90
24638;DHT22;12773;50.162;8.548;2023-03-01T19:20:32;5.70;90.00
24638;DHT22;12773;50.162;8.548;2023-03-01T19:23:20;5.70;90.20
24638;DHT22;12773;50.162;8.548;2023-03-01T19:26:14;5.70;90.20
24638;DHT22;12773;50.162;8.548;2023-03-01T19:28:57;5.70;90.50
24638;DHT22;12773;50.162;8.548;2023-03-01T19:31:44;5.70;90.50